createdAt,value
2023-02-17T00:00:39.820Z,13.02
2023-02-17T00:03:07.412Z,12.73
2023-02-17T00:05:40.130Z,13.40
2023-02-17T00:08:07.745Z,12.38
2023-02-17T00:10:35.394Z,12.80
2023-02-17T00:13:02.978Z,12.60
2023-02-17T00:15:30.582Z,12.60
2023-02-17T00:17:58.215Z,12.43
2023-02-17T00:20:25.924Z,13.05
2023-02-17T00:22:54.855Z,12.18
2023-02-17T00:25:22.487Z,12.60
2023-02-17T00:27:50.072Z,11.85
2023-02-17T00:30:18.208Z,12.35
2023-02-17T00:32:45.840Z,12.98
2023-02-17T00:35:13.708Z,12.40
2023-02-17T00:37:41.378Z,12.38
2023-02-17T00:40:11.155Z,11.10
2023-02-17T00:42:38.769Z,11.50
2023-02-17T00:45:07.125Z,12.02
2023-02-17T00:47:34.750Z,12.20
2023-02-17T00:50:02.475Z,11.55
2023-02-17T00:52:30.078Z,12.00
2023-02-17T00:54:57.617Z,11.35
2023-02-17T00:57:27.307Z,11.70
2023-02-17T00:59:54.869Z,12.65
2023-02-17T01:02:22.483Z,12.13
2023-02-17T01:04:50.189Z,12.07
2023-02-17T01:07:17.788Z,10.80
2023-02-17T01:09:45.368Z,10.75
2023-02-17T01:12:13.072Z,10.50
2023-02-17T01:14:42.103Z,11.98
2023-02-17T01:17:09.754Z,12.27
2023-02-17T01:19:37.386Z,11.57
2023-02-17T01:22:05.060Z,12.00
2023-02-17T01:24:32.834Z,11.45
2023-02-17T01:27:00.411Z,11.82
2023-02-17T01:29:28.010Z,11.38
2023-02-17T01:31:56.970Z,11.90
2023-02-17T01:34:24.619Z,12.23
2023-02-17T01:36:52.183Z,11.60
2023-02-17T01:39:19.947Z,11.25
2023-02-17T01:41:47.662Z,11.50
2023-02-17T01:44:17.545Z,11.73
2023-02-17T01:46:46.875Z,11.30
2023-02-17T01:49:25.349Z,11.73
2023-02-17T01:51:56.245Z,10.65
2023-02-17T01:54:27.640Z,11.27
2023-02-17T01:56:55.961Z,11.45
2023-02-17T01:59:23.907Z,10.88
2023-02-17T02:01:53.730Z,10.73
2023-02-17T02:04:26.268Z,10.90
2023-02-17T02:06:53.945Z,10.18
2023-02-17T02:09:23.746Z,10.60
2023-02-17T02:11:51.725Z,11.00
2023-02-17T02:14:19.791Z,11.05
2023-02-17T02:16:52.141Z,10.77
2023-02-17T02:19:37.856Z,10.60
2023-02-17T02:22:23.167Z,10.02
2023-02-17T02:25:00.809Z,10.60
2023-02-17T02:27:49.669Z,10.90
2023-02-17T02:30:28.335Z,11.10
2023-02-17T02:33:05.257Z,10.77
2023-02-17T02:35:39.039Z,11.35
2023-02-17T02:38:13.181Z,10.70
2023-02-17T02:40:44.642Z,10.98
2023-02-17T02:43:12.831Z,11.07
2023-02-17T02:45:40.457Z,11.80
2023-02-17T02:48:09.434Z,11.43
2023-02-17T02:50:55.186Z,10.93
2023-02-17T02:53:53.916Z,11.80
2023-02-17T02:56:32.845Z,10.70
2023-02-17T02:59:07.611Z,10.65
2023-02-17T03:01:39.048Z,10.48
2023-02-17T03:04:12.432Z,10.95
2023-02-17T03:06:44.093Z,10.38
2023-02-17T03:09:13.615Z,11.93
2023-02-17T03:11:42.500Z,10.98
2023-02-17T03:14:11.962Z,10.48
2023-02-17T03:16:40.714Z,10.15
2023-02-17T03:19:11.304Z,11.07
2023-02-17T03:21:41.241Z,10.32
2023-02-17T03:24:09.281Z,10.63
2023-02-17T03:26:36.877Z,11.18
2023-02-17T03:29:04.507Z,10.50
2023-02-17T03:31:32.518Z,10.27
2023-02-17T03:34:01.285Z,11.18
2023-02-17T03:36:30.904Z,9.38
2023-02-17T03:38:58.889Z,10.65
2023-02-17T03:41:26.959Z,10.13
2023-02-17T03:43:54.584Z,9.35
2023-02-17T03:46:22.464Z,10.00
2023-02-17T03:48:50.077Z,9.85
2023-02-17T03:51:19.870Z,9.70
2023-02-17T03:53:49.470Z,10.25
2023-02-17T03:56:18.008Z,10.35
2023-02-17T03:58:46.107Z,10.02
2023-02-17T04:01:14.390Z,10.65
2023-02-17T04:03:42.479Z,9.65
2023-02-17T04:06:11.543Z,10.23
2023-02-17T04:08:39.827Z,9.93
2023-02-17T04:11:10.775Z,9.90
2023-02-17T04:13:38.893Z,10.20
2023-02-17T04:16:08.908Z,10.35
2023-02-17T04:18:36.992Z,11.50
2023-02-17T04:21:05.556Z,10.35
2023-02-17T04:23:33.440Z,10.00
2023-02-17T04:26:01.045Z,10.50
2023-02-17T04:28:29.967Z,9.85
2023-02-17T04:30:59.016Z,10.10
2023-02-17T04:33:27.512Z,10.73
2023-02-17T04:35:59.402Z,10.10
2023-02-17T04:38:28.366Z,11.85
2023-02-17T04:40:56.469Z,10.98
2023-02-17T04:43:24.364Z,10.43
2023-02-17T04:45:53.362Z,10.38
2023-02-17T04:48:21.592Z,10.57
2023-02-17T04:50:49.391Z,10.50
2023-02-17T04:53:17.179Z,10.00
2023-02-17T04:55:44.833Z,10.88
2023-02-17T04:58:12.440Z,11.52
2023-02-17T05:00:40.012Z,10.43
2023-02-17T05:03:10.195Z,10.80
2023-02-17T05:05:37.847Z,11.43
2023-02-17T05:08:05.898Z,11.25
2023-02-17T05:10:33.451Z,11.10
2023-02-17T05:13:01.030Z,11.18
2023-02-17T05:15:28.704Z,13.02
2023-02-17T05:17:56.262Z,10.55
2023-02-17T05:20:25.317Z,10.68
2023-02-17T05:22:52.953Z,11.07
2023-02-17T05:25:20.603Z,11.15
2023-02-17T05:27:48.204Z,10.50
2023-02-17T05:30:16.115Z,10.13
2023-02-17T05:32:43.724Z,10.23
2023-02-17T05:35:11.366Z,9.98
2023-02-17T05:37:40.545Z,10.48
2023-02-17T05:40:09.365Z,10.13
2023-02-17T05:42:37.096Z,9.98
2023-02-17T05:45:04.959Z,10.15
2023-02-17T05:47:32.598Z,9.75
2023-02-17T05:50:00.229Z,9.65
2023-02-17T05:52:27.951Z,10.10
2023-02-17T05:54:56.924Z,9.43
2023-02-17T05:57:24.544Z,9.85
2023-02-17T05:59:52.145Z,9.85
2023-02-17T06:02:19.790Z,9.80
2023-02-17T06:04:47.478Z,9.60
2023-02-17T06:07:15.142Z,10.40
2023-02-17T06:09:42.773Z,8.70
2023-02-17T06:12:11.704Z,10.10
2023-02-17T06:14:39.390Z,9.50
2023-02-17T06:17:07.025Z,9.68
2023-02-17T06:19:34.755Z,9.30
2023-02-17T06:22:02.370Z,9.02
2023-02-17T06:24:30.063Z,9.75
2023-02-17T06:26:57.679Z,9.75
2023-02-17T06:29:27.664Z,8.85
2023-02-17T06:31:55.692Z,9.35
2023-02-17T06:34:23.642Z,8.75
2023-02-17T06:36:51.234Z,9.35
2023-02-17T06:39:18.857Z,10.30
2023-02-17T06:41:46.848Z,9.88
2023-02-17T06:44:14.492Z,9.50
2023-02-17T06:46:46.026Z,10.18
2023-02-17T06:49:13.772Z,9.65
2023-02-17T06:51:41.710Z,9.77
2023-02-17T06:54:09.528Z,9.57
2023-02-17T06:56:37.516Z,9.88
2023-02-17T06:59:05.476Z,10.68
2023-02-17T07:01:33.152Z,10.02
2023-02-17T07:04:02.118Z,9.13
2023-02-17T07:06:29.792Z,10.18
2023-02-17T07:08:57.452Z,9.00
2023-02-17T07:11:26.209Z,9.63
2023-02-17T07:13:53.756Z,10.20
2023-02-17T07:16:21.442Z,9.05
2023-02-17T07:18:49.099Z,9.60
2023-02-17T07:21:18.173Z,9.45
2023-02-17T07:23:46.273Z,8.85
2023-02-17T07:26:28.588Z,9.82
2023-02-17T07:31:23.804Z,8.77
2023-02-17T07:33:51.434Z,10.20
2023-02-17T07:36:20.472Z,9.52
2023-02-17T07:38:48.289Z,9.27
2023-02-17T07:41:18.088Z,9.43
2023-02-17T07:43:46.449Z,9.52
2023-02-17T07:46:14.212Z,9.68
2023-02-17T07:48:42.247Z,9.13
2023-02-17T07:51:11.406Z,10.23
2023-02-17T07:53:40.650Z,9.32
2023-02-17T07:56:09.736Z,9.40
2023-02-17T07:58:38.912Z,9.57
2023-02-17T08:01:07.677Z,9.60
2023-02-17T08:03:35.413Z,9.50
2023-02-17T08:06:03.216Z,9.90
2023-02-17T08:08:48.289Z,9.80
2023-02-17T08:11:35.384Z,9.73
2023-02-17T08:14:03.247Z,9.65
2023-02-17T08:16:30.858Z,10.27
2023-02-17T08:18:58.802Z,10.32
2023-02-17T08:21:28.048Z,9.52
2023-02-17T08:23:55.976Z,9.55
2023-02-17T08:26:24.979Z,9.93
2023-02-17T08:28:52.610Z,10.18
2023-02-17T08:31:22.940Z,9.48
2023-02-17T08:33:51.084Z,10.15
2023-02-17T08:36:21.041Z,9.40
2023-02-17T08:38:50.422Z,10.10
2023-02-17T08:41:20.334Z,10.30
2023-02-17T08:43:49.862Z,9.02
2023-02-17T08:46:18.709Z,11.90
2023-02-17T08:48:46.701Z,10.02
2023-02-17T08:51:15.187Z,11.05
2023-02-17T08:53:43.232Z,9.88
2023-02-17T08:56:11.056Z,11.40
2023-02-17T08:58:38.669Z,11.25
2023-02-17T09:01:07.688Z,10.43
2023-02-17T09:03:35.435Z,10.65
2023-02-17T09:06:03.227Z,10.98
2023-02-17T09:08:31.120Z,9.85
2023-02-17T09:10:59.369Z,10.73
2023-02-17T09:13:27.355Z,11.35
2023-02-17T09:15:55.256Z,11.18
2023-02-17T09:18:24.473Z,10.60
2023-02-17T09:20:52.273Z,10.25
2023-02-17T09:23:20.201Z,10.13
2023-02-17T09:25:47.817Z,10.73
2023-02-17T09:28:15.431Z,10.93
2023-02-17T09:30:43.290Z,10.85
2023-02-17T09:33:10.987Z,10.50
2023-02-17T09:35:40.302Z,10.85
2023-02-17T09:38:10.282Z,10.77
2023-02-17T09:40:43.013Z,12.10
2023-02-17T09:43:14.802Z,9.95
2023-02-17T09:45:44.099Z,10.55
2023-02-17T09:48:13.041Z,9.98
2023-02-17T09:50:44.810Z,10.82
2023-02-17T09:53:19.210Z,10.40
2023-02-17T09:55:49.260Z,10.63
2023-02-17T09:58:20.563Z,10.18
2023-02-17T10:00:50.216Z,11.20
2023-02-17T10:03:20.683Z,10.48
2023-02-17T10:05:53.910Z,10.20
2023-02-17T10:08:23.933Z,10.05
2023-02-17T10:10:55.076Z,10.40
2023-02-17T10:13:23.935Z,11.73
2023-02-17T10:15:53.659Z,9.80
2023-02-17T10:18:26.431Z,10.27
2023-02-17T10:20:59.635Z,10.27
2023-02-17T10:23:29.783Z,11.82
2023-02-17T10:26:06.920Z,10.43
2023-02-17T10:28:52.352Z,10.60
2023-02-17T10:31:27.918Z,10.25
2023-02-17T10:33:59.402Z,10.57
2023-02-17T10:36:34.002Z,11.02
2023-02-17T10:39:04.786Z,10.65
2023-02-17T10:41:36.073Z,10.70
2023-02-17T10:44:08.101Z,10.60
2023-02-17T10:46:35.914Z,11.15
2023-02-17T10:49:06.239Z,10.27
2023-02-17T10:51:37.009Z,9.57
2023-02-17T10:54:08.566Z,11.10
2023-02-17T10:56:39.652Z,10.82
2023-02-17T10:59:08.888Z,10.00
2023-02-17T11:01:37.525Z,10.32
2023-02-17T11:04:06.752Z,10.23
2023-02-17T11:06:44.311Z,11.23
2023-02-17T11:09:20.100Z,10.48
2023-02-17T11:11:54.422Z,10.43
2023-02-17T11:14:25.417Z,10.35
2023-02-17T11:16:55.847Z,10.52
2023-02-17T11:19:25.583Z,11.60
2023-02-17T11:21:56.129Z,10.30
2023-02-17T11:24:24.244Z,11.02
2023-02-17T11:26:59.683Z,10.95
2023-02-17T11:29:27.566Z,11.15
2023-02-17T11:31:56.471Z,10.20
2023-02-17T11:34:26.691Z,10.35
2023-02-17T11:37:05.104Z,10.73
2023-02-17T11:39:39.127Z,10.13
2023-02-17T11:42:15.721Z,11.23
2023-02-17T11:44:43.530Z,10.27
2023-02-17T11:47:16.775Z,11.30
2023-02-17T11:49:56.231Z,10.38
2023-02-17T11:52:44.716Z,10.07
2023-02-17T11:55:24.688Z,10.80
2023-02-17T11:58:01.748Z,10.93
2023-02-17T12:00:34.177Z,10.00
2023-02-17T12:03:22.465Z,12.15
2023-02-17T12:06:00.177Z,11.02
2023-02-17T12:08:38.282Z,10.35
2023-02-17T12:11:12.920Z,10.77
2023-02-17T12:13:47.993Z,10.63
2023-02-17T12:16:29.002Z,10.77
2023-02-17T12:19:03.429Z,10.20
2023-02-17T12:21:43.583Z,10.48
2023-02-17T12:24:29.628Z,10.05
2023-02-17T12:27:04.278Z,10.65
2023-02-17T12:29:43.673Z,10.68
2023-02-17T12:32:21.695Z,10.68
2023-02-17T12:34:52.980Z,10.40
2023-02-17T12:37:23.355Z,10.90
2023-02-17T12:39:54.695Z,10.40
2023-02-17T12:42:24.918Z,10.90
2023-02-17T12:44:54.959Z,11.45
2023-02-17T12:47:27.074Z,10.48
2023-02-17T12:49:58.797Z,10.60
2023-02-17T12:52:28.478Z,10.75
2023-02-17T12:55:00.356Z,10.27
2023-02-17T12:57:34.408Z,10.50
2023-02-17T13:00:02.620Z,10.93
2023-02-17T13:02:30.784Z,10.73
2023-02-17T13:05:01.513Z,10.25
2023-02-17T13:07:40.689Z,11.40
2023-02-17T13:10:20.876Z,10.82
2023-02-17T13:12:57.681Z,11.02
2023-02-17T13:15:28.958Z,10.88
2023-02-17T13:18:01.260Z,10.33
2023-02-17T13:20:41.983Z,10.45
2023-02-17T13:23:13.695Z,11.10
2023-02-17T13:25:42.697Z,10.60
2023-02-17T13:28:35.166Z,10.38
2023-02-17T13:31:15.224Z,10.32
2023-02-17T13:33:45.986Z,10.05
2023-02-17T13:36:16.683Z,10.05
2023-02-17T13:38:56.466Z,10.68
2023-02-17T13:41:25.465Z,9.88
2023-02-17T13:43:53.332Z,10.75
2023-02-17T13:46:24.366Z,10.30
2023-02-17T13:49:04.032Z,9.68
2023-02-17T13:51:33.672Z,10.13
2023-02-17T13:54:09.003Z,10.10
2023-02-17T13:56:37.994Z,9.68
2023-02-17T13:59:10.731Z,10.18
2023-02-17T14:01:39.627Z,10.35
2023-02-17T14:04:19.146Z,9.98
2023-02-17T14:06:48.724Z,10.25
2023-02-17T14:09:22.034Z,9.15
2023-02-17T14:11:51.241Z,10.15
2023-02-17T14:14:19.052Z,9.68
2023-02-17T14:16:47.033Z,9.35
2023-02-17T14:19:16.299Z,10.63
2023-02-17T14:21:45.841Z,9.43
2023-02-17T14:24:27.120Z,9.88
2023-02-17T14:26:59.873Z,10.23
2023-02-17T14:29:27.881Z,10.40
2023-02-17T14:31:55.664Z,10.80
2023-02-17T14:34:28.078Z,10.18
2023-02-17T14:37:11.601Z,10.00
2023-02-17T14:39:39.231Z,10.63
2023-02-17T14:42:08.400Z,9.23
2023-02-17T14:44:36.049Z,10.23
2023-02-17T14:47:03.683Z,10.50
2023-02-17T14:49:31.349Z,10.13
2023-02-17T14:51:59.143Z,11.35
2023-02-17T14:54:28.761Z,10.05
2023-02-17T14:57:03.679Z,9.48
2023-02-17T14:59:32.973Z,9.50
2023-02-17T15:02:01.349Z,10.45
2023-02-17T15:04:29.203Z,9.82
2023-02-17T15:06:56.875Z,10.20
2023-02-17T15:09:29.278Z,11.20
2023-02-17T15:11:57.161Z,9.82
2023-02-17T15:14:25.186Z,10.10
2023-02-17T15:16:54.257Z,9.93
2023-02-17T15:19:21.953Z,10.70
2023-02-17T15:21:50.810Z,10.10
2023-02-17T15:24:20.164Z,9.55
2023-02-17T15:26:48.157Z,9.90
2023-02-17T15:29:17.398Z,9.60
2023-02-17T15:31:45.776Z,9.85
2023-02-17T15:34:17.104Z,10.02
2023-02-17T15:36:44.923Z,9.90
2023-02-17T15:39:13.018Z,10.05
2023-02-17T15:41:41.144Z,10.05
2023-02-17T15:44:14.521Z,9.20
2023-02-17T15:46:42.255Z,9.88
2023-02-17T15:49:11.062Z,10.32
2023-02-17T15:51:40.234Z,9.98
2023-02-17T15:54:07.844Z,9.57
2023-02-17T15:56:39.844Z,10.20
2023-02-17T15:59:11.102Z,9.45
2023-02-17T16:01:38.830Z,9.70
2023-02-17T16:04:07.601Z,10.05
2023-02-17T16:06:35.190Z,10.05
2023-02-17T16:09:04.228Z,10.07
2023-02-17T16:11:32.053Z,10.45
2023-02-17T16:14:00.110Z,9.60
2023-02-17T16:16:32.289Z,9.85
2023-02-17T16:21:27.464Z,10.30
2023-02-17T16:23:59.805Z,9.73
2023-02-17T16:26:32.861Z,9.95
2023-02-17T16:29:01.797Z,9.98
2023-02-17T16:31:32.281Z,9.88
2023-02-17T16:34:00.428Z,10.25
2023-02-17T16:36:32.324Z,10.07
2023-02-17T16:39:01.966Z,9.90
2023-02-17T16:41:30.905Z,10.10
2023-02-17T16:43:58.535Z,9.18
2023-02-17T16:46:30.424Z,9.68
2023-02-17T16:48:58.097Z,9.55
2023-02-17T16:51:25.821Z,9.65
2023-02-17T16:53:53.795Z,9.27
2023-02-17T16:56:24.146Z,8.85
2023-02-17T16:58:53.098Z,9.55
2023-02-17T17:01:22.066Z,8.77
2023-02-17T17:03:50.594Z,11.77
2023-02-17T17:06:20.668Z,9.50
2023-02-17T17:08:48.733Z,9.45
2023-02-17T17:11:18.091Z,9.68
2023-02-17T17:13:46.601Z,9.18
2023-02-17T17:16:17.615Z,10.13
2023-02-17T17:18:45.264Z,10.43
2023-02-17T17:21:13.930Z,11.10
2023-02-17T17:23:41.895Z,9.30
2023-02-17T17:26:18.510Z,9.45
2023-02-17T17:28:48.084Z,9.05
2023-02-17T17:31:17.302Z,12.52
2023-02-17T17:33:46.039Z,10.52
2023-02-17T17:36:18.340Z,9.70
2023-02-17T17:38:46.021Z,9.55
2023-02-17T17:41:14.712Z,8.90
2023-02-17T17:43:45.099Z,8.52
2023-02-17T17:46:14.438Z,9.90
2023-02-17T17:48:43.936Z,8.77
2023-02-17T17:51:13.691Z,10.48
2023-02-17T17:53:41.910Z,8.57
2023-02-17T17:56:14.144Z,9.05
2023-02-17T17:58:41.817Z,9.60
2023-02-17T18:01:09.540Z,8.68
2023-02-17T18:03:37.214Z,9.15
2023-02-17T18:06:07.547Z,9.60
2023-02-17T18:08:36.166Z,8.57
2023-02-17T18:11:03.987Z,9.73
2023-02-17T18:13:31.729Z,9.23
2023-02-17T18:15:59.479Z,9.30
2023-02-17T18:18:28.544Z,8.75
2023-02-17T18:20:56.125Z,9.70
2023-02-17T18:23:25.048Z,9.70
2023-02-17T18:25:52.671Z,9.65
2023-02-17T18:28:20.277Z,11.68
2023-02-17T18:30:48.018Z,10.40
2023-02-17T18:33:15.839Z,9.25
2023-02-17T18:35:45.489Z,9.75
2023-02-17T18:38:13.475Z,9.15
2023-02-17T18:40:42.670Z,8.32
2023-02-17T18:43:10.464Z,8.93
2023-02-17T18:45:38.398Z,8.80
2023-02-17T18:48:06.312Z,8.70
2023-02-17T18:50:34.942Z,8.85
2023-02-17T18:53:05.090Z,8.45
2023-02-17T18:55:33.007Z,9.88
2023-02-17T18:58:01.947Z,8.52
2023-02-17T19:00:29.963Z,8.68
2023-02-17T19:02:57.616Z,8.73
2023-02-17T19:05:28.318Z,8.95
2023-02-17T19:07:56.115Z,9.30
2023-02-17T19:10:23.714Z,8.98
2023-02-17T19:12:51.334Z,8.48
2023-02-17T19:15:20.973Z,9.15
2023-02-17T19:17:51.233Z,9.13
2023-02-17T19:20:18.970Z,8.65
2023-02-17T19:22:46.577Z,8.88
2023-02-17T19:25:14.179Z,8.38
2023-02-17T19:27:41.868Z,8.55
2023-02-17T19:30:10.695Z,9.02
2023-02-17T19:32:39.679Z,9.27
2023-02-17T19:35:10.017Z,8.30
2023-02-17T19:37:39.042Z,9.95
2023-02-17T19:40:08.124Z,8.98
2023-02-17T19:42:35.737Z,8.75
2023-02-17T19:45:03.370Z,9.55
2023-02-17T19:47:31.636Z,9.63
2023-02-17T19:50:00.565Z,8.57
2023-02-17T19:52:28.778Z,9.30
2023-02-17T19:54:56.603Z,9.05
2023-02-17T19:57:24.172Z,9.32
2023-02-17T19:59:51.741Z,8.70
2023-02-17T20:02:19.335Z,9.07
2023-02-17T20:04:46.920Z,8.88
2023-02-17T20:07:15.883Z,9.13
2023-02-17T20:09:43.497Z,11.45
2023-02-17T20:12:11.108Z,9.00
2023-02-17T20:14:38.780Z,8.88
2023-02-17T20:17:06.420Z,9.63
2023-02-17T20:19:37.697Z,9.55
2023-02-17T20:22:05.498Z,9.30
2023-02-17T20:24:34.573Z,8.85
2023-02-17T20:27:02.353Z,8.77
2023-02-17T20:29:30.158Z,9.27
2023-02-17T20:31:57.842Z,9.55
2023-02-17T20:34:29.126Z,9.35
2023-02-17T20:36:56.837Z,9.37
2023-02-17T20:39:25.804Z,8.73
2023-02-17T20:41:55.457Z,8.88
2023-02-17T20:44:27.455Z,9.20
2023-02-17T20:46:55.893Z,9.70
2023-02-17T20:49:23.813Z,9.38
2023-02-17T20:51:51.387Z,9.43
2023-02-17T20:54:19.027Z,9.52
2023-02-17T20:56:47.899Z,9.57
2023-02-17T20:59:16.867Z,9.05
2023-02-17T21:01:44.754Z,9.15
2023-02-17T21:04:14.085Z,9.82
2023-02-17T21:06:43.200Z,9.57
2023-02-17T21:09:14.601Z,9.20
2023-02-17T21:11:42.714Z,9.60
2023-02-17T21:14:10.444Z,9.68
2023-02-17T21:16:39.709Z,8.77
2023-02-17T21:19:07.651Z,9.38
2023-02-17T21:21:35.735Z,9.40
2023-02-17T21:24:03.311Z,10.35
2023-02-17T21:26:30.909Z,9.93
2023-02-17T21:28:58.513Z,10.13
2023-02-17T21:31:27.037Z,9.20
2023-02-17T21:33:56.174Z,9.45
2023-02-17T21:36:23.794Z,9.48
2023-02-17T21:38:51.526Z,9.52
2023-02-17T21:41:20.956Z,9.32
2023-02-17T21:44:06.333Z,9.45
2023-02-17T21:46:34.654Z,10.05
2023-02-17T21:49:03.651Z,9.15
2023-02-17T21:51:31.661Z,9.27
2023-02-17T21:53:59.520Z,9.35
2023-02-17T21:56:27.126Z,9.63
2023-02-17T21:58:56.194Z,9.82
2023-02-17T22:01:25.356Z,9.15
2023-02-17T22:03:53.173Z,9.50
2023-02-17T22:06:24.253Z,9.60
2023-02-17T22:08:52.258Z,10.18
2023-02-17T22:11:21.520Z,10.02
2023-02-17T22:13:49.155Z,9.75
2023-02-17T22:16:16.957Z,9.82
2023-02-17T22:18:44.610Z,10.13
2023-02-17T22:21:13.912Z,9.75
2023-02-17T22:23:43.578Z,10.00
2023-02-17T22:26:13.011Z,10.15
2023-02-17T22:28:41.035Z,10.00
2023-02-17T22:31:08.741Z,9.38
2023-02-17T22:33:36.383Z,9.98
2023-02-17T22:36:07.284Z,10.63
2023-02-17T22:38:35.417Z,10.30
2023-02-17T22:41:07.752Z,10.23
2023-02-17T22:46:04.009Z,9.82
2023-02-17T22:48:32.671Z,9.88
2023-02-17T22:51:00.479Z,10.45
2023-02-17T22:53:28.043Z,10.13
2023-02-17T22:55:56.978Z,10.13
2023-02-17T22:58:26.786Z,10.27
2023-02-17T23:01:03.663Z,10.60
2023-02-17T23:03:31.498Z,10.35
2023-02-17T23:06:00.750Z,9.82
2023-02-17T23:08:28.621Z,10.32
2023-02-17T23:10:56.240Z,10.95
2023-02-17T23:13:24.018Z,9.80
2023-02-17T23:15:53.131Z,10.13
2023-02-17T23:18:20.911Z,10.85
2023-02-17T23:20:50.102Z,9.68
2023-02-17T23:23:17.716Z,10.68
2023-02-17T23:25:49.738Z,10.18
2023-02-17T23:28:17.399Z,10.52
2023-02-17T23:30:46.798Z,9.88
2023-02-17T23:33:16.267Z,10.02
2023-02-17T23:35:45.054Z,11.13
2023-02-17T23:38:12.968Z,9.75
2023-02-17T23:40:41.358Z,10.02
2023-02-17T23:43:09.614Z,9.93
2023-02-17T23:45:39.157Z,9.70
2023-02-17T23:48:07.218Z,9.88
2023-02-17T23:50:36.171Z,10.55
2023-02-17T23:53:03.775Z,9.45
2023-02-17T23:55:31.342Z,8.88
2023-02-17T23:57:59.944Z,9.10
